createdAt,value
2022-09-01T00:00:15.477Z,100.00
2022-09-01T00:02:45.391Z,100.00
2022-09-01T00:05:14.966Z,100.00
2022-09-01T00:07:48.822Z,100.00
2022-09-01T00:10:18.775Z,100.00
2022-09-01T00:12:48.605Z,100.00
2022-09-01T00:15:17.540Z,100.00
2022-09-01T00:17:48.696Z,100.00
2022-09-01T00:20:20.863Z,100.00
2022-09-01T00:22:53.154Z,100.00
2022-09-01T00:25:24.879Z,100.00
2022-09-01T00:27:54.486Z,100.00
2022-09-01T00:30:25.914Z,100.00
2022-09-01T00:32:54.477Z,100.00
2022-09-01T00:35:23.233Z,100.00
2022-09-01T00:37:53.464Z,100.00
2022-09-01T00:40:24.068Z,100.00
2022-09-01T00:42:53.847Z,100.00
2022-09-01T00:45:24.014Z,100.00
2022-09-01T00:47:53.985Z,100.00
2022-09-01T00:50:22.546Z,100.00
2022-09-01T00:52:53.207Z,100.00
2022-09-01T00:55:25.554Z,100.00
2022-09-01T00:57:55.449Z,100.00
2022-09-01T01:00:25.189Z,100.00
2022-09-01T01:02:56.439Z,100.00
2022-09-01T01:05:28.086Z,100.00
2022-09-01T01:07:59.745Z,100.00
2022-09-01T01:10:28.732Z,100.00
2022-09-01T01:12:57.283Z,100.00
2022-09-01T01:15:27.137Z,100.00
2022-09-01T01:17:56.212Z,100.00
2022-09-01T01:20:45.414Z,100.00
2022-09-01T01:23:19.779Z,100.00
2022-09-01T01:25:51.375Z,100.00
2022-09-01T01:28:22.559Z,100.00
2022-09-01T01:30:54.777Z,100.00
2022-09-01T01:33:27.031Z,100.00
2022-09-01T01:35:57.744Z,100.00
2022-09-01T01:38:28.265Z,100.00
2022-09-01T01:41:01.502Z,100.00
2022-09-01T01:43:30.875Z,100.00
2022-09-01T01:46:02.899Z,100.00
2022-09-01T01:48:37.996Z,100.00
2022-09-01T01:51:07.833Z,100.00
2022-09-01T01:53:36.691Z,100.00
2022-09-01T01:56:09.377Z,100.00
2022-09-01T01:58:39.234Z,100.00
2022-09-01T02:01:13.301Z,100.00
2022-09-01T02:03:41.978Z,100.00
2022-09-01T02:06:12.217Z,100.00
2022-09-01T02:08:42.528Z,100.00
2022-09-01T02:11:13.301Z,100.00
2022-09-01T02:13:41.616Z,100.00
2022-09-01T02:16:13.628Z,100.00
2022-09-01T02:18:44.547Z,100.00
2022-09-01T02:21:18.503Z,100.00
2022-09-01T02:23:47.378Z,100.00
2022-09-01T02:26:19.115Z,100.00
2022-09-01T02:28:54.845Z,100.00
2022-09-01T02:31:32.364Z,100.00
2022-09-01T02:34:02.305Z,100.00
2022-09-01T02:36:33.028Z,100.00
2022-09-01T02:39:02.596Z,100.00
2022-09-01T02:41:32.884Z,100.00
2022-09-01T02:44:02.842Z,100.00
2022-09-01T02:46:31.898Z,100.00
2022-09-01T02:49:04.689Z,100.00
2022-09-01T02:51:33.507Z,100.00
2022-09-01T02:54:06.791Z,100.00
2022-09-01T02:56:39.405Z,100.00
2022-09-01T02:59:12.054Z,100.00
2022-09-01T03:01:41.190Z,100.00
2022-09-01T03:04:10.381Z,100.00
2022-09-01T03:06:39.618Z,100.00
2022-09-01T03:09:14.839Z,100.00
2022-09-01T03:11:48.485Z,100.00
2022-09-01T03:14:18.733Z,100.00
2022-09-01T03:16:47.013Z,100.00
2022-09-01T03:19:16.743Z,100.00
2022-09-01T03:21:49.045Z,100.00
2022-09-01T03:24:22.596Z,100.00
2022-09-01T03:26:58.483Z,100.00
2022-09-01T03:29:27.098Z,100.00
2022-09-01T03:31:56.963Z,100.00
2022-09-01T03:34:26.810Z,100.00
2022-09-01T03:36:56.507Z,100.00
2022-09-01T03:39:30.642Z,100.00
2022-09-01T03:42:01.642Z,100.00
2022-09-01T03:44:29.996Z,100.00
2022-09-01T03:46:58.805Z,100.00
2022-09-01T03:49:31.563Z,100.00
2022-09-01T03:52:00.460Z,100.00
2022-09-01T03:54:30.773Z,100.00
2022-09-01T03:57:03.092Z,100.00
2022-09-01T03:59:32.764Z,100.00
2022-09-01T04:02:02.956Z,100.00
2022-09-01T04:04:33.216Z,100.00
2022-09-01T04:07:02.157Z,100.00
2022-09-01T04:09:32.687Z,100.00
2022-09-01T04:12:03.290Z,100.00
2022-09-01T04:14:36.368Z,100.00
2022-09-01T04:17:28.635Z,100.00
2022-09-01T04:19:59.466Z,100.00
2022-09-01T04:22:32.680Z,100.00
2022-09-01T04:25:04.280Z,100.00
2022-09-01T04:27:34.246Z,100.00
2022-09-01T04:30:04.119Z,100.00
2022-09-01T04:32:37.969Z,100.00
2022-09-01T04:35:08.199Z,100.00
2022-09-01T04:37:36.716Z,100.00
2022-09-01T04:40:06.533Z,100.00
2022-09-01T04:42:37.481Z,100.00
2022-09-01T04:45:11.289Z,100.00
2022-09-01T04:47:45.638Z,100.00
2022-09-01T04:50:19.199Z,100.00
2022-09-01T04:53:07.342Z,100.00
2022-09-01T04:55:43.832Z,100.00
2022-09-01T04:58:17.609Z,100.00
2022-09-01T05:00:48.307Z,100.00
2022-09-01T05:03:21.759Z,100.00
2022-09-01T05:06:03.836Z,100.00
2022-09-01T05:08:36.375Z,100.00
2022-09-01T05:11:16.984Z,100.00
2022-09-01T05:13:49.694Z,100.00
2022-09-01T05:16:25.006Z,100.00
2022-09-01T05:18:58.293Z,100.00
2022-09-01T05:21:34.363Z,100.00
2022-09-01T05:24:08.219Z,100.00
2022-09-01T05:26:41.014Z,100.00
2022-09-01T05:29:16.156Z,100.00
2022-09-01T05:31:50.508Z,100.00
2022-09-01T05:34:27.160Z,100.00
2022-09-01T05:37:02.135Z,100.00
2022-09-01T05:39:30.518Z,100.00
2022-09-01T05:42:09.436Z,100.00
2022-09-01T05:44:44.302Z,100.00
2022-09-01T05:47:21.309Z,100.00
2022-09-01T05:49:56.020Z,100.00
2022-09-01T05:52:26.651Z,100.00
2022-09-01T05:55:00.284Z,100.00
2022-09-01T05:57:35.631Z,100.00
2022-09-01T06:00:17.278Z,100.00
2022-09-01T06:02:51.605Z,100.00
2022-09-01T06:05:23.861Z,100.00
2022-09-01T06:07:57.389Z,100.00
2022-09-01T06:10:27.307Z,100.00
2022-09-01T06:12:57.004Z,100.00
2022-09-01T06:15:29.767Z,100.00
2022-09-01T06:18:01.038Z,100.00
2022-09-01T06:20:31.880Z,100.00
2022-09-01T06:23:01.310Z,100.00
2022-09-01T06:25:30.745Z,100.00
2022-09-01T06:28:04.608Z,100.00
2022-09-01T06:30:36.953Z,100.00
2022-09-01T06:33:14.775Z,100.00
2022-09-01T06:35:48.539Z,100.00
2022-09-01T06:38:20.921Z,100.00
2022-09-01T06:40:55.788Z,100.00
2022-09-01T06:43:25.743Z,100.00
2022-09-01T06:45:55.675Z,100.00
2022-09-01T06:48:32.988Z,100.00
2022-09-01T06:51:19.491Z,100.00
2022-09-01T06:53:57.548Z,100.00
2022-09-01T06:56:32.278Z,100.00
2022-09-01T06:59:22.936Z,100.00
2022-09-01T07:02:01.395Z,100.00
2022-09-01T07:04:50.877Z,100.00
2022-09-01T07:10:25.706Z,100.00
2022-09-01T07:13:12.459Z,100.00
2022-09-01T07:18:44.666Z,100.00
2022-09-01T07:22:06.265Z,100.00
2022-09-01T07:24:18.869Z,100.00
2022-09-01T07:27:11.002Z,100.00
2022-09-01T07:29:41.903Z,100.00
2022-09-01T07:35:06.683Z,100.00
2022-09-01T07:43:47.329Z,96.36
2022-09-01T07:46:37.256Z,94.75
2022-09-01T07:52:02.143Z,95.82
2022-09-01T07:54:34.580Z,95.52
2022-09-01T07:57:04.290Z,96.62
2022-09-01T07:59:36.739Z,94.02
2022-09-01T08:02:18.645Z,93.26
2022-09-01T08:04:51.151Z,93.67
2022-09-01T08:07:21.437Z,94.15
2022-09-01T08:09:50.264Z,96.20
2022-09-01T08:12:18.794Z,95.50
2022-09-01T08:17:58.373Z,94.53
2022-09-01T08:20:31.436Z,94.38
2022-09-01T08:23:26.954Z,96.47
2022-09-01T08:25:57.008Z,94.97
2022-09-01T08:28:26.711Z,96.28
2022-09-01T08:30:57.134Z,94.14
2022-09-01T08:33:27.126Z,94.89
2022-09-01T08:35:57.215Z,94.95
2022-09-01T08:38:28.977Z,95.54
2022-09-01T08:40:58.707Z,95.12
2022-09-01T08:43:40.086Z,88.73
2022-09-01T08:46:11.369Z,89.17
2022-09-01T08:51:47.591Z,90.81
2022-09-01T08:54:32.059Z,86.26
2022-09-01T08:57:03.863Z,85.52
2022-09-01T08:59:50.956Z,83.09
2022-09-01T09:02:41.301Z,81.32
2022-09-01T09:05:25.198Z,84.11
2022-09-01T09:11:59.461Z,78.01
2022-09-01T09:14:55.444Z,75.86
2022-09-01T09:17:26.588Z,74.90
2022-09-01T09:19:54.817Z,74.32
2022-09-01T09:22:23.781Z,71.32
2022-09-01T09:24:56.425Z,71.44
2022-09-01T09:27:26.896Z,73.92
2022-09-01T09:29:58.221Z,65.54
2022-09-01T09:33:11.729Z,64.93
2022-09-01T09:35:34.326Z,64.09
2022-09-01T09:38:21.685Z,65.16
2022-09-01T09:43:51.023Z,69.75
2022-09-01T09:46:27.690Z,66.08
2022-09-01T09:49:14.729Z,70.01
2022-09-01T09:51:44.540Z,68.23
2022-09-01T09:54:15.056Z,67.22
2022-09-01T09:56:44.651Z,71.83
2022-09-01T09:59:54.155Z,59.46
2022-09-01T10:02:28.483Z,58.63
2022-09-01T10:04:57.327Z,56.66
2022-09-01T10:07:29.583Z,57.05
2022-09-01T10:09:59.017Z,53.47
2022-09-01T10:12:29.060Z,51.62
2022-09-01T10:15:00.561Z,51.50
2022-09-01T10:17:36.700Z,49.18
2022-09-01T10:20:17.333Z,49.23
2022-09-01T10:22:48.586Z,48.17
2022-09-01T10:25:21.053Z,50.04
2022-09-01T10:27:51.170Z,50.79
2022-09-01T10:30:24.359Z,50.53
2022-09-01T10:33:01.556Z,52.46
2022-09-01T10:35:39.829Z,48.58
2022-09-01T10:38:11.948Z,48.38
2022-09-01T10:40:48.995Z,48.41
2022-09-01T10:43:42.763Z,49.41
2022-09-01T10:46:51.512Z,48.12
2022-09-01T10:50:07.017Z,44.83
2022-09-01T10:52:55.670Z,45.00
2022-09-01T10:55:29.484Z,47.42
2022-09-01T10:59:29.911Z,45.18
2022-09-01T11:01:34.877Z,40.47
2022-09-01T11:03:57.108Z,44.17
2022-09-01T11:07:17.236Z,41.48
2022-09-01T11:10:31.344Z,43.55
2022-09-01T11:13:32.535Z,44.76
2022-09-01T11:16:49.722Z,45.37
2022-09-01T11:19:33.521Z,46.22
2022-09-01T11:22:26.627Z,44.80
2022-09-01T11:25:38.578Z,49.10
2022-09-01T11:28:35.289Z,45.14
2022-09-01T11:31:05.285Z,46.48
2022-09-01T11:33:46.684Z,46.92
2022-09-01T11:36:20.240Z,48.11
2022-09-01T11:38:51.573Z,49.45
2022-09-01T11:41:28.370Z,52.15
2022-09-01T11:43:59.363Z,55.09
2022-09-01T11:46:32.972Z,53.68
2022-09-01T11:49:05.643Z,52.81
2022-09-01T11:51:42.212Z,53.46
2022-09-01T11:54:14.171Z,55.90
2022-09-01T11:56:42.739Z,52.47
2022-09-01T11:59:11.010Z,51.05
2022-09-01T12:01:40.697Z,53.26
2022-09-01T12:04:23.438Z,49.68
2022-09-01T12:06:58.366Z,52.23
2022-09-01T12:09:36.315Z,52.86
2022-09-01T12:12:06.352Z,52.46
2022-09-01T12:14:55.019Z,51.88
2022-09-01T12:17:23.967Z,52.13
2022-09-01T12:19:54.772Z,51.51
2022-09-01T12:22:23.522Z,51.17
2022-09-01T12:24:56.067Z,51.14
2022-09-01T12:27:24.536Z,51.00
2022-09-01T12:29:52.769Z,50.08
2022-09-01T12:32:21.023Z,49.84
2022-09-01T12:35:10.944Z,50.96
2022-09-01T12:37:39.832Z,51.01
2022-09-01T12:40:25.518Z,47.40
2022-09-01T12:42:55.343Z,49.26
2022-09-01T12:45:44.394Z,50.90
2022-09-01T12:48:29.477Z,51.59
2022-09-01T12:50:59.599Z,50.24
2022-09-01T12:53:30.557Z,50.91
2022-09-01T12:56:23.133Z,51.03
2022-09-01T12:58:53.918Z,51.13
2022-09-01T13:01:28.362Z,52.38
2022-09-01T13:04:19.647Z,52.23
2022-09-01T13:06:55.079Z,52.34
2022-09-01T13:09:24.310Z,49.21
2022-09-01T13:12:11.640Z,49.11
2022-09-01T13:14:46.114Z,48.77
2022-09-01T13:17:17.097Z,50.20
2022-09-01T13:19:45.939Z,49.93
2022-09-01T13:22:18.402Z,50.09
2022-09-01T13:24:49.451Z,49.52
2022-09-01T13:27:22.335Z,49.78
2022-09-01T13:29:54.594Z,51.71
2022-09-01T13:32:24.617Z,53.40
2022-09-01T13:34:57.294Z,51.48
2022-09-01T13:37:35.015Z,51.79
2022-09-01T13:40:06.031Z,50.34
2022-09-01T13:42:54.590Z,50.94
2022-09-01T13:45:25.095Z,51.37
2022-09-01T13:53:34.249Z,51.18
2022-09-01T13:56:05.636Z,49.62
2022-09-01T13:58:39.230Z,51.20
2022-09-01T14:01:08.007Z,50.49
2022-09-01T14:03:37.781Z,49.12
2022-09-01T14:06:08.581Z,50.24
2022-09-01T14:08:42.545Z,50.25
2022-09-01T14:11:17.713Z,51.41
2022-09-01T14:13:47.845Z,50.71
2022-09-01T14:16:22.032Z,49.19
2022-09-01T14:18:50.967Z,48.78
2022-09-01T14:21:19.250Z,49.14
2022-09-01T14:23:51.440Z,47.19
2022-09-01T14:26:19.764Z,48.73
2022-09-01T14:28:49.732Z,49.49
2022-09-01T14:31:18.971Z,50.63
2022-09-01T14:33:47.391Z,50.71
2022-09-01T14:36:19.169Z,50.31
2022-09-01T14:38:52.996Z,51.13
2022-09-01T14:41:27.156Z,51.70
2022-09-01T14:44:02.763Z,54.48
2022-09-01T14:46:34.419Z,51.74
2022-09-01T14:49:03.069Z,50.69
2022-09-01T14:54:23.674Z,49.23
2022-09-01T14:59:41.617Z,48.95
2022-09-01T15:02:10.420Z,49.56
2022-09-01T15:04:39.996Z,49.62
2022-09-01T15:07:08.170Z,50.43
2022-09-01T15:09:37.832Z,50.17
2022-09-01T15:12:06.793Z,49.33
2022-09-01T15:14:36.270Z,47.51
2022-09-01T15:17:07.173Z,50.03
2022-09-01T15:19:36.366Z,48.38
2022-09-01T15:22:04.731Z,49.10
2022-09-01T15:24:34.111Z,49.61
2022-09-01T15:27:03.107Z,49.33
2022-09-01T15:29:34.645Z,50.94
2022-09-01T15:32:06.570Z,51.54
2022-09-01T15:34:34.745Z,50.22
2022-09-01T15:37:04.562Z,49.93
2022-09-01T15:39:37.739Z,51.47
2022-09-01T15:42:08.427Z,52.18
2022-09-01T15:44:37.814Z,50.93
2022-09-01T15:47:07.832Z,50.89
2022-09-01T15:49:37.741Z,51.58
2022-09-01T15:52:06.017Z,52.60
2022-09-01T15:54:34.524Z,50.08
2022-09-01T15:57:03.001Z,50.93
2022-09-01T15:59:32.654Z,51.37
2022-09-01T16:02:04.852Z,51.04
2022-09-01T16:04:38.733Z,53.28
2022-09-01T16:07:08.272Z,50.51
2022-09-01T16:09:38.290Z,52.39
2022-09-01T16:12:08.695Z,51.61
2022-09-01T16:14:39.677Z,49.91
2022-09-01T16:17:12.670Z,51.01
2022-09-01T16:19:50.511Z,51.29
2022-09-01T16:22:23.727Z,52.33
2022-09-01T16:24:54.417Z,52.78
2022-09-01T16:27:24.634Z,52.34
2022-09-01T16:29:55.389Z,51.81
2022-09-01T16:32:24.617Z,52.24
2022-09-01T16:34:54.616Z,52.62
2022-09-01T16:37:39.342Z,54.59
2022-09-01T16:40:16.425Z,55.08
2022-09-01T16:42:57.858Z,56.39
2022-09-01T16:45:34.518Z,57.02
2022-09-01T16:48:10.135Z,57.53
2022-09-01T16:50:43.067Z,57.39
2022-09-01T16:53:23.970Z,59.34
2022-09-01T16:56:03.452Z,58.57
2022-09-01T16:59:07.219Z,58.39
2022-09-01T17:01:58.684Z,63.11
2022-09-01T17:11:39.380Z,64.78
2022-09-01T17:14:08.955Z,67.53
2022-09-01T17:16:39.808Z,69.74
2022-09-01T17:19:13.013Z,71.01
2022-09-01T17:21:43.173Z,72.57
2022-09-01T17:24:17.021Z,72.81
2022-09-01T17:26:50.916Z,73.32
2022-09-01T17:29:23.373Z,73.60
2022-09-01T17:31:58.152Z,73.54
2022-09-01T17:34:31.910Z,72.58
2022-09-01T17:37:06.724Z,76.10
2022-09-01T17:39:40.725Z,74.68
2022-09-01T17:42:15.189Z,70.63
2022-09-01T17:44:49.133Z,69.21
2022-09-01T17:47:21.804Z,68.71
2022-09-01T17:49:55.266Z,68.77
2022-09-01T17:52:27.174Z,68.27
2022-09-01T17:54:58.716Z,69.22
2022-09-01T17:57:32.107Z,72.39
2022-09-01T18:00:03.070Z,71.76
2022-09-01T18:02:58.564Z,73.12
2022-09-01T18:05:28.363Z,72.20
2022-09-01T18:08:04.295Z,71.67
2022-09-01T18:10:36.730Z,72.70
2022-09-01T18:13:12.353Z,74.61
2022-09-01T18:15:44.828Z,74.08
2022-09-01T18:18:34.867Z,75.87
2022-09-01T18:21:05.176Z,75.85
2022-09-01T18:23:34.148Z,76.42
2022-09-01T18:26:08.290Z,75.96
2022-09-01T18:28:42.301Z,76.30
2022-09-01T18:31:16.799Z,77.04
2022-09-01T18:33:47.013Z,78.20
2022-09-01T18:36:21.763Z,79.68
2022-09-01T18:38:52.097Z,80.42
2022-09-01T18:41:29.824Z,81.89
2022-09-01T18:44:04.951Z,82.67
2022-09-01T18:46:37.547Z,83.40
2022-09-01T18:49:10.710Z,84.58
2022-09-01T18:51:47.843Z,85.45
2022-09-01T18:54:17.655Z,84.89
2022-09-01T18:56:48.576Z,84.52
2022-09-01T18:59:36.984Z,85.68
2022-09-01T19:02:14.826Z,86.33
2022-09-01T19:04:46.386Z,87.01
2022-09-01T19:07:20.816Z,87.89
2022-09-01T19:09:53.875Z,88.51
2022-09-01T19:12:25.513Z,87.17
2022-09-01T19:14:59.658Z,87.83
2022-09-01T19:18:03.627Z,89.55
2022-09-01T19:20:37.994Z,89.48
2022-09-01T19:23:09.916Z,88.77
2022-09-01T19:25:42.574Z,90.57
2022-09-01T19:28:16.994Z,91.72
2022-09-01T19:30:49.620Z,89.98
2022-09-01T19:33:23.909Z,92.71
2022-09-01T19:35:55.006Z,91.20
2022-09-01T19:38:27.991Z,92.51
2022-09-01T19:41:00.131Z,92.85
2022-09-01T19:43:31.623Z,95.33
2022-09-01T19:46:07.249Z,95.16
2022-09-01T19:48:39.402Z,95.05
2022-09-01T19:51:09.825Z,95.69
2022-09-01T19:53:43.899Z,97.09
2022-09-01T19:56:15.071Z,97.49
2022-09-01T19:58:47.727Z,98.38
2022-09-01T20:01:21.879Z,97.75
2022-09-01T20:03:51.128Z,98.72
2022-09-01T20:06:21.238Z,99.87
2022-09-01T20:08:52.875Z,99.86
2022-09-01T20:11:22.757Z,100.00
2022-09-01T20:14:15.467Z,100.00
2022-09-01T20:16:49.828Z,100.00
2022-09-01T20:19:31.483Z,100.00
2022-09-01T20:22:04.874Z,100.00
2022-09-01T20:24:35.275Z,100.00
2022-09-01T20:27:05.726Z,100.00
2022-09-01T20:29:40.100Z,100.00
2022-09-01T20:32:09.969Z,100.00
2022-09-01T20:34:40.635Z,100.00
2022-09-01T20:37:11.590Z,100.00
2022-09-01T20:39:58.335Z,100.00
2022-09-01T20:42:32.671Z,100.00
2022-09-01T20:45:02.717Z,100.00
2022-09-01T20:47:32.982Z,100.00
2022-09-01T20:50:02.434Z,100.00
2022-09-01T20:52:33.906Z,100.00
2022-09-01T20:55:10.247Z,100.00
2022-09-01T20:57:40.956Z,100.00
2022-09-01T21:00:10.702Z,100.00
2022-09-01T21:02:48.250Z,100.00
2022-09-01T21:05:23.143Z,100.00
2022-09-01T21:07:57.238Z,100.00
2022-09-01T21:10:28.534Z,100.00
2022-09-01T21:13:02.726Z,100.00
2022-09-01T21:15:35.568Z,100.00
2022-09-01T21:18:13.912Z,100.00
2022-09-01T21:20:51.111Z,100.00
2022-09-01T21:23:21.315Z,100.00
2022-09-01T21:25:52.223Z,100.00
2022-09-01T21:28:28.528Z,100.00
2022-09-01T21:31:00.240Z,100.00
2022-09-01T21:33:32.113Z,100.00
2022-09-01T21:36:00.681Z,100.00
2022-09-01T21:38:29.520Z,100.00
2022-09-01T21:40:58.692Z,100.00
2022-09-01T21:43:28.345Z,100.00
2022-09-01T21:45:56.601Z,100.00
2022-09-01T21:48:25.364Z,100.00
2022-09-01T21:50:59.207Z,100.00
2022-09-01T21:53:29.295Z,100.00
2022-09-01T21:55:58.168Z,100.00
2022-09-01T21:58:26.701Z,100.00
2022-09-01T22:00:55.787Z,100.00
2022-09-01T22:03:24.236Z,100.00
2022-09-01T22:05:54.275Z,100.00
2022-09-01T22:08:23.043Z,100.00
2022-09-01T22:10:55.821Z,100.00
2022-09-01T22:13:24.806Z,100.00
2022-09-01T22:15:53.920Z,100.00
2022-09-01T22:18:23.281Z,100.00
2022-09-01T22:21:02.178Z,100.00
2022-09-01T22:23:32.822Z,100.00
2022-09-01T22:26:01.018Z,100.00
2022-09-01T22:28:31.879Z,100.00
2022-09-01T22:31:01.330Z,100.00
2022-09-01T22:33:32.830Z,100.00
2022-09-01T22:36:02.701Z,100.00
2022-09-01T22:38:31.153Z,100.00
2022-09-01T22:41:00.157Z,100.00
2022-09-01T22:43:30.671Z,100.00
2022-09-01T22:46:00.011Z,100.00
2022-09-01T22:48:28.640Z,100.00
2022-09-01T22:50:57.660Z,100.00
2022-09-01T22:53:28.362Z,100.00
2022-09-01T22:56:00.040Z,100.00
2022-09-01T22:58:29.921Z,100.00
2022-09-01T23:01:01.838Z,100.00
2022-09-01T23:03:30.230Z,100.00
2022-09-01T23:06:04.307Z,100.00
2022-09-01T23:08:34.372Z,100.00
2022-09-01T23:11:02.476Z,100.00
2022-09-01T23:13:31.236Z,100.00
2022-09-01T23:16:02.712Z,100.00
2022-09-01T23:18:31.913Z,100.00
2022-09-01T23:21:00.419Z,100.00
2022-09-01T23:23:28.845Z,100.00
2022-09-01T23:25:58.636Z,100.00
2022-09-01T23:28:27.116Z,100.00
2022-09-01T23:30:55.308Z,100.00
2022-09-01T23:33:24.282Z,100.00
2022-09-01T23:35:53.470Z,100.00
2022-09-01T23:38:22.439Z,100.00
2022-09-01T23:40:51.973Z,100.00
2022-09-01T23:43:23.988Z,100.00
2022-09-01T23:45:53.691Z,100.00
2022-09-01T23:48:21.934Z,100.00
2022-09-01T23:50:51.710Z,100.00
2022-09-01T23:53:20.997Z,100.00
2022-09-01T23:55:51.357Z,100.00
2022-09-01T23:58:19.611Z,100.00
